sensor_id;sensor_type;location;lat;lon;timestamp;pressure;altitude;pressure_sealevel;temperature;humidity
37078;BME280;22989;55.998;37.212;2024-01-07T00:00:00;43344.00;;;-145.39;51.63
37078;BME280;22989;55.998;37.212;2024-01-07T00:02:26;43322.50;;;-145.39;51.61
37078;BME280;22989;55.998;37.212;2024-01-07T00:04:52;43363.53;;;-145.39;51.66
37078;BME280;22989;55.998;37.212;2024-01-07T00:07:17;43338.13;;;-145.39;51.53
37078;BME280;22989;55.998;37.212;2024-01-07T00:09:43;43367.44;;;-145.39;51.57
37078;BME280;22989;55.998;37.212;2024-01-07T00:12:08;43347.91;;;-145.39;51.62
37078;BME280;22989;55.998;37.212;2024-01-07T00:14:34;43373.28;;;-145.39;51.73
37078;BME280;22989;55.998;37.212;2024-01-07T00:16:59;43359.63;;;-145.39;51.52
37078;BME280;22989;55.998;37.212;2024-01-07T00:19:25;43408.44;;;-145.39;51.74
37078;BME280;22989;55.998;37.212;2024-01-07T00:21:50;43385.00;;;-145.39;51.54
37078;BME280;22989;55.998;37.212;2024-01-07T00:24:16;43367.44;;;-145.39;51.66
37078;BME280;22989;55.998;37.212;2024-01-07T00:26:41;43369.38;;;-145.39;51.88
37078;BME280;22989;55.998;37.212;2024-01-07T00:29:07;43371.34;;;-145.39;51.66
37078;BME280;22989;55.998;37.212;2024-01-07T00:31:33;43369.38;;;-145.39;51.66
37078;BME280;22989;55.998;37.212;2024-01-07T00:33:58;43371.34;;;-145.39;51.47
37078;BME280;22989;55.998;37.212;2024-01-07T00:36:24;43406.50;;;-145.39;51.77
37078;BME280;22989;55.998;37.212;2024-01-07T00:38:50;43365.47;;;-145.39;51.51
37078;BME280;22989;55.998;37.212;2024-01-07T00:41:15;43385.00;;;-145.39;51.56
37078;BME280;22989;55.998;37.212;2024-01-07T00:43:41;43349.84;;;-145.39;51.37
37078;BME280;22989;55.998;37.212;2024-01-07T00:46:06;43365.47;;;-145.39;51.54
37078;BME280;22989;55.998;37.212;2024-01-07T00:48:32;43427.97;;;-145.39;51.28
37078;BME280;22989;55.998;37.212;2024-01-07T00:50:58;43398.69;;;-145.39;51.65
37078;BME280;22989;55.998;37.212;2024-01-07T00:53:23;43435.78;;;-145.39;51.53
37078;BME280;22989;55.998;37.212;2024-01-07T00:55:49;43398.69;;;-145.39;51.27
37078;BME280;22989;55.998;37.212;2024-01-07T00:58:14;43412.34;;;-145.39;51.33
37078;BME280;22989;55.998;37.212;2024-01-07T01:00:40;43435.78;;;-145.39;51.24
37078;BME280;22989;55.998;37.212;2024-01-07T01:03:05;43422.09;;;-145.39;51.11
37078;BME280;22989;55.998;37.212;2024-01-07T01:05:31;43414.28;;;-145.39;51.46
37078;BME280;22989;55.998;37.212;2024-01-07T01:07:56;43437.72;;;-145.39;51.37
37078;BME280;22989;55.998;37.212;2024-01-07T01:10:22;43420.16;;;-145.39;51.37
37078;BME280;22989;55.998;37.212;2024-01-07T01:12:47;43410.38;;;-145.39;51.45
37078;BME280;22989;55.998;37.212;2024-01-07T01:15:13;43449.44;;;-145.39;51.42
37078;BME280;22989;55.998;37.212;2024-01-07T01:17:42;43445.53;;;-145.39;51.12
37078;BME280;22989;55.998;37.212;2024-01-07T01:20:08;43470.94;;;-145.39;51.45
37078;BME280;22989;55.998;37.212;2024-01-07T01:22:33;43470.94;;;-145.39;51.66
37078;BME280;22989;55.998;37.212;2024-01-07T01:24:59;43422.09;;;-145.39;51.61
37078;BME280;22989;55.998;37.212;2024-01-07T01:27:25;43443.59;;;-145.39;51.39
37078;BME280;22989;55.998;37.212;2024-01-07T01:29:51;43451.41;;;-145.39;51.43
37078;BME280;22989;55.998;37.212;2024-01-07T01:32:16;43457.25;;;-145.39;51.61
37078;BME280;22989;55.998;37.212;2024-01-07T01:34:42;43445.53;;;-145.39;51.34
37078;BME280;22989;55.998;37.212;2024-01-07T01:37:11;43474.84;;;-145.39;51.24
37078;BME280;22989;55.998;37.212;2024-01-07T01:39:40;43463.13;;;-145.39;51.61
37078;BME280;22989;55.998;37.212;2024-01-07T01:42:05;43461.16;;;-145.39;51.45
37078;BME280;22989;55.998;37.212;2024-01-07T01:44:31;43433.81;;;-145.39;51.31
37078;BME280;22989;55.998;37.212;2024-01-07T01:46:57;43435.78;;;-145.39;51.44
37078;BME280;22989;55.998;37.212;2024-01-07T01:49:23;43418.19;;;-145.39;51.49
37078;BME280;22989;55.998;37.212;2024-01-07T01:51:50;43445.53;;;-145.39;51.52
37078;BME280;22989;55.998;37.212;2024-01-07T01:54:17;43461.16;;;-145.39;51.32
37078;BME280;22989;55.998;37.212;2024-01-07T01:56:43;43453.34;;;-145.39;51.44
37078;BME280;22989;55.998;37.212;2024-01-07T01:59:08;43461.16;;;-145.39;51.36
37078;BME280;22989;55.998;37.212;2024-01-07T02:01:34;43426.00;;;-145.39;51.28
37078;BME280;22989;55.998;37.212;2024-01-07T02:04:00;43449.44;;;-145.39;51.58
37078;BME280;22989;55.998;37.212;2024-01-07T02:06:26;43453.34;;;-145.39;51.25
37078;BME280;22989;55.998;37.212;2024-01-07T02:08:53;43424.06;;;-145.39;51.39
37078;BME280;22989;55.998;37.212;2024-01-07T02:11:20;43443.59;;;-145.39;51.53
37078;BME280;22989;55.998;37.212;2024-01-07T02:13:46;43455.31;;;-145.39;51.11
37078;BME280;22989;55.998;37.212;2024-01-07T02:16:12;43447.50;;;-145.39;51.05
37078;BME280;22989;55.998;37.212;2024-01-07T02:18:40;43414.28;;;-145.39;51.32
37078;BME280;22989;55.998;37.212;2024-01-07T02:21:08;43412.34;;;-145.39;51.17
37078;BME280;22989;55.998;37.212;2024-01-07T02:23:34;43447.50;;;-145.39;51.46
37078;BME280;22989;55.998;37.212;2024-01-07T02:25:59;43472.88;;;-145.39;51.06
37078;BME280;22989;55.998;37.212;2024-01-07T02:28:25;43461.16;;;-145.39;51.37
37078;BME280;22989;55.998;37.212;2024-01-07T02:30:50;43451.41;;;-145.39;51.29
37078;BME280;22989;55.998;37.212;2024-01-07T02:33:16;43478.75;;;-145.39;51.25
37078;BME280;22989;55.998;37.212;2024-01-07T02:35:41;43474.84;;;-145.39;51.26
37078;BME280;22989;55.998;37.212;2024-01-07T02:38:07;43494.38;;;-145.39;51.21
37078;BME280;22989;55.998;37.212;2024-01-07T02:40:32;43490.47;;;-145.39;51.27
37078;BME280;22989;55.998;37.212;2024-01-07T02:42:58;43480.69;;;-145.39;51.07
37078;BME280;22989;55.998;37.212;2024-01-07T02:45:24;43490.47;;;-145.39;50.85
37078;BME280;22989;55.998;37.212;2024-01-07T02:47:49;43492.41;;;-145.39;50.97
37078;BME280;22989;55.998;37.212;2024-01-07T02:50:15;43496.31;;;-145.39;50.90
37078;BME280;22989;55.998;37.212;2024-01-07T02:52:41;43531.47;;;-145.39;50.89
37078;BME280;22989;55.998;37.212;2024-01-07T02:55:08;43517.81;;;-145.39;50.57
37078;BME280;22989;55.998;37.212;2024-01-07T02:57:33;43519.75;;;-145.39;50.66
37078;BME280;22989;55.998;37.212;2024-01-07T02:59:59;43527.56;;;-145.39;51.07
37078;BME280;22989;55.998;37.212;2024-01-07T03:02:24;43551.00;;;-145.39;50.92
37078;BME280;22989;55.998;37.212;2024-01-07T03:04:50;43504.13;;;-145.39;51.24
37078;BME280;22989;55.998;37.212;2024-01-07T03:07:15;43527.56;;;-145.39;50.79
37078;BME280;22989;55.998;37.212;2024-01-07T03:09:41;43543.19;;;-145.39;50.76
37078;BME280;22989;55.998;37.212;2024-01-07T03:12:07;43572.50;;;-145.39;50.95
37078;BME280;22989;55.998;37.212;2024-01-07T03:14:32;43566.63;;;-145.39;51.12
37078;BME280;22989;55.998;37.212;2024-01-07T03:16:58;43578.34;;;-145.39;50.63
37078;BME280;22989;55.998;37.212;2024-01-07T03:19:23;43523.66;;;-145.39;50.79
37078;BME280;22989;55.998;37.212;2024-01-07T03:21:49;43558.81;;;-145.39;50.97
37078;BME280;22989;55.998;37.212;2024-01-07T03:24:14;43556.88;;;-145.39;50.83
37078;BME280;22989;55.998;37.212;2024-01-07T03:26:40;43570.53;;;-145.39;50.89
37078;BME280;22989;55.998;37.212;2024-01-07T03:29:05;43572.50;;;-145.39;50.46
37078;BME280;22989;55.998;37.212;2024-01-07T03:31:31;43588.13;;;-145.39;50.75
37078;BME280;22989;55.998;37.212;2024-01-07T03:33:57;43556.88;;;-145.39;50.94
37078;BME280;22989;55.998;37.212;2024-01-07T03:36:22;43529.53;;;-145.39;50.92
37078;BME280;22989;55.998;37.212;2024-01-07T03:38:48;43511.94;;;-145.39;51.14
37078;BME280;22989;55.998;37.212;2024-01-07T03:41:17;43562.72;;;-145.39;50.59
37078;BME280;22989;55.998;37.212;2024-01-07T03:43:44;43576.41;;;-145.39;50.73
37078;BME280;22989;55.998;37.212;2024-01-07T03:46:10;43531.47;;;-145.39;50.84
37078;BME280;22989;55.998;37.212;2024-01-07T03:48:35;43582.25;;;-145.39;50.53
37078;BME280;22989;55.998;37.212;2024-01-07T03:51:01;43556.88;;;-145.39;50.84
37078;BME280;22989;55.998;37.212;2024-01-07T03:53:26;43592.03;;;-145.39;50.89
37078;BME280;22989;55.998;37.212;2024-01-07T03:55:51;43586.16;;;-145.39;50.88
37078;BME280;22989;55.998;37.212;2024-01-07T03:58:17;43564.69;;;-145.39;50.62
37078;BME280;22989;55.998;37.212;2024-01-07T04:00:43;43578.34;;;-145.39;50.70
37078;BME280;22989;55.998;37.212;2024-01-07T04:03:08;43593.97;;;-145.39;50.68
37078;BME280;22989;55.998;37.212;2024-01-07T04:05:34;43586.16;;;-145.39;50.98
37078;BME280;22989;55.998;37.212;2024-01-07T04:08:02;43597.88;;;-145.39;50.66
37078;BME280;22989;55.998;37.212;2024-01-07T04:10:28;43586.16;;;-145.39;50.58
37078;BME280;22989;55.998;37.212;2024-01-07T04:12:54;43576.41;;;-145.39;50.50
37078;BME280;22989;55.998;37.212;2024-01-07T04:15:19;43578.34;;;-145.39;50.66
37078;BME280;22989;55.998;37.212;2024-01-07T04:17:45;43597.88;;;-145.39;50.75
37078;BME280;22989;55.998;37.212;2024-01-07T04:20:13;43615.47;;;-145.39;50.34
37078;BME280;22989;55.998;37.212;2024-01-07T04:22:39;43631.09;;;-145.39;50.71
37078;BME280;22989;55.998;37.212;2024-01-07T04:25:05;43609.59;;;-145.39;50.51
37078;BME280;22989;55.998;37.212;2024-01-07T04:27:35;43621.31;;;-145.39;50.85
37078;BME280;22989;55.998;37.212;2024-01-07T04:30:01;43599.84;;;-145.39;50.65
37078;BME280;22989;55.998;37.212;2024-01-07T04:32:26;43615.47;;;-145.39;50.91
37078;BME280;22989;55.998;37.212;2024-01-07T04:34:52;43605.69;;;-145.39;50.82
37078;BME280;22989;55.998;37.212;2024-01-07T04:37:17;43580.31;;;-145.39;50.93
37078;BME280;22989;55.998;37.212;2024-01-07T04:39:43;43597.88;;;-145.39;50.57
37078;BME280;22989;55.998;37.212;2024-01-07T04:42:08;43593.97;;;-145.39;50.64
37078;BME280;22989;55.998;37.212;2024-01-07T04:44:34;43599.84;;;-145.39;50.74
37078;BME280;22989;55.998;37.212;2024-01-07T04:47:00;43599.84;;;-145.39;50.83
37078;BME280;22989;55.998;37.212;2024-01-07T04:49:25;43611.56;;;-145.39;50.66
37078;BME280;22989;55.998;37.212;2024-01-07T04:51:51;43582.25;;;-145.39;50.73
37078;BME280;22989;55.998;37.212;2024-01-07T04:54:16;43597.88;;;-145.39;50.69
37078;BME280;22989;55.998;37.212;2024-01-07T04:56:44;43597.88;;;-145.39;50.63
37078;BME280;22989;55.998;37.212;2024-01-07T04:59:18;43603.75;;;-145.39;50.93
37078;BME280;22989;55.998;37.212;2024-01-07T05:01:44;43615.47;;;-145.39;50.74
37078;BME280;22989;55.998;37.212;2024-01-07T05:04:09;43531.47;;;-145.39;50.75
37078;BME280;22989;55.998;37.212;2024-01-07T05:06:35;43595.94;;;-145.39;50.78
37078;BME280;22989;55.998;37.212;2024-01-07T05:09:00;43607.66;;;-145.39;50.71
37078;BME280;22989;55.998;37.212;2024-01-07T05:11:26;43654.53;;;-145.39;50.79
37078;BME280;22989;55.998;37.212;2024-01-07T05:13:51;43689.69;;;-145.39;50.86
37078;BME280;22989;55.998;37.212;2024-01-07T05:16:20;43720.94;;;-145.39;50.55
37078;BME280;22989;55.998;37.212;2024-01-07T05:18:46;43744.38;;;-145.39;50.58
37078;BME280;22989;55.998;37.212;2024-01-07T05:21:18;43867.44;;;-145.39;50.72
37078;BME280;22989;55.998;37.212;2024-01-07T05:23:44;43996.34;;;-145.39;50.60
37078;BME280;22989;55.998;37.212;2024-01-07T05:26:09;44156.53;;;-145.39;50.48
37078;BME280;22989;55.998;37.212;2024-01-07T05:28:36;44332.34;;;-145.39;50.68
37078;BME280;22989;55.998;37.212;2024-01-07T05:31:02;44517.91;;;-145.39;50.41
37078;BME280;22989;55.998;37.212;2024-01-07T05:33:27;44607.78;;;-145.39;50.35
37078;BME280;22989;55.998;37.212;2024-01-07T05:35:53;44725.00;;;-145.39;50.36
37078;BME280;22989;55.998;37.212;2024-01-07T05:38:18;44807.06;;;-145.39;50.36
37078;BME280;22989;55.998;37.212;2024-01-07T05:40:44;44852.00;;;-145.39;50.38
37078;BME280;22989;55.998;37.212;2024-01-07T05:43:09;44883.25;;;-145.39;50.34
37078;BME280;22989;55.998;37.212;2024-01-07T05:45:35;44896.94;;;-145.39;50.46
37078;BME280;22989;55.998;37.212;2024-01-07T05:48:00;44979.00;;;-145.39;50.53
37078;BME280;22989;55.998;37.212;2024-01-07T05:50:26;45025.88;;;-145.39;50.76
37078;BME280;22989;55.998;37.212;2024-01-07T05:52:51;45084.50;;;-145.39;50.75
37078;BME280;22989;55.998;37.212;2024-01-07T05:55:17;45119.66;;;-145.39;50.64
37078;BME280;22989;55.998;37.212;2024-01-07T05:57:43;45107.94;;;-145.39;50.69
37078;BME280;22989;55.998;37.212;2024-01-07T06:00:09;45178.28;;;-145.39;50.59
37078;BME280;22989;55.998;37.212;2024-01-07T06:02:39;45190.00;;;-145.39;50.46
37078;BME280;22989;55.998;37.212;2024-01-07T06:05:05;45240.81;;;-145.39;50.36
37078;BME280;22989;55.998;37.212;2024-01-07T06:07:31;45266.22;;;-145.39;50.21
37078;BME280;22989;55.998;37.212;2024-01-07T06:09:56;45283.78;;;-145.39;50.47
37078;BME280;22989;55.998;37.212;2024-01-07T06:12:22;45322.88;;;-145.39;50.52
37078;BME280;22989;55.998;37.212;2024-01-07T06:14:47;45360.00;;;-145.39;50.51
37078;BME280;22989;55.998;37.212;2024-01-07T06:17:13;45422.53;;;-145.39;50.67
37078;BME280;22989;55.998;37.212;2024-01-07T06:19:38;45387.34;;;-145.39;50.46
37078;BME280;22989;55.998;37.212;2024-01-07T06:22:04;45440.13;;;-145.39;50.29
37078;BME280;22989;55.998;37.212;2024-01-07T06:24:29;45467.47;;;-145.39;50.20
37078;BME280;22989;55.998;37.212;2024-01-07T06:26:55;45514.38;;;-145.39;50.31
37078;BME280;22989;55.998;37.212;2024-01-07T06:29:20;45557.34;;;-145.39;50.56
37078;BME280;22989;55.998;37.212;2024-01-07T06:31:46;45514.38;;;-145.39;50.30
37078;BME280;22989;55.998;37.212;2024-01-07T06:34:11;45545.63;;;-145.39;50.51
37078;BME280;22989;55.998;37.212;2024-01-07T06:36:40;45563.22;;;-145.39;50.21
37078;BME280;22989;55.998;37.212;2024-01-07T06:39:09;45600.34;;;-145.39;50.17
37078;BME280;22989;55.998;37.212;2024-01-07T06:41:35;45588.63;;;-145.39;50.07
37078;BME280;22989;55.998;37.212;2024-01-07T06:44:02;45629.66;;;-145.39;50.14
37078;BME280;22989;55.998;37.212;2024-01-07T06:46:27;45559.31;;;-145.39;50.47
37078;BME280;22989;55.998;37.212;2024-01-07T06:48:52;45629.66;;;-145.39;50.46
37078;BME280;22989;55.998;37.212;2024-01-07T06:51:18;45621.84;;;-145.39;50.37
37078;BME280;22989;55.998;37.212;2024-01-07T06:53:44;45594.47;;;-145.39;50.22
37078;BME280;22989;55.998;37.212;2024-01-07T06:56:09;45619.88;;;-145.39;50.46
37078;BME280;22989;55.998;37.212;2024-01-07T06:58:34;45627.72;;;-145.39;50.31
37078;BME280;22989;55.998;37.212;2024-01-07T07:01:00;45645.28;;;-145.39;50.06
37078;BME280;22989;55.998;37.212;2024-01-07T07:03:26;45633.56;;;-145.39;50.00
37078;BME280;22989;55.998;37.212;2024-01-07T07:05:51;45631.63;;;-145.39;50.08
37078;BME280;22989;55.998;37.212;2024-01-07T07:08:16;45623.78;;;-145.39;50.37
37078;BME280;22989;55.998;37.212;2024-01-07T07:10:42;45668.75;;;-145.39;50.27
37078;BME280;22989;55.998;37.212;2024-01-07T07:13:08;45678.50;;;-145.39;50.34
37078;BME280;22989;55.998;37.212;2024-01-07T07:15:34;45653.09;;;-145.39;50.18
37078;BME280;22989;55.998;37.212;2024-01-07T07:17:59;45705.88;;;-145.39;50.24
37078;BME280;22989;55.998;37.212;2024-01-07T07:20:25;45703.91;;;-145.39;50.29
37078;BME280;22989;55.998;37.212;2024-01-07T07:22:50;45700.00;;;-145.39;50.14
37078;BME280;22989;55.998;37.212;2024-01-07T07:25:16;45676.56;;;-145.39;50.16
37078;BME280;22989;55.998;37.212;2024-01-07T07:27:41;45698.06;;;-145.39;50.34
37078;BME280;22989;55.998;37.212;2024-01-07T07:30:07;45688.28;;;-145.39;50.05
37078;BME280;22989;55.998;37.212;2024-01-07T07:32:32;45778.19;;;-145.39;49.95
37078;BME280;22989;55.998;37.212;2024-01-07T07:34:59;45971.66;;;-145.39;50.02
37078;BME280;22989;55.998;37.212;2024-01-07T07:37:24;45973.59;;;-145.39;50.29
37078;BME280;22989;55.998;37.212;2024-01-07T07:39:50;45946.25;;;-145.39;50.14
37078;BME280;22989;55.998;37.212;2024-01-07T07:42:16;45950.16;;;-145.39;50.14
37078;BME280;22989;55.998;37.212;2024-01-07T07:44:41;45899.34;;;-145.39;50.14
37078;BME280;22989;55.998;37.212;2024-01-07T07:47:07;45885.66;;;-145.39;49.97
37078;BME280;22989;55.998;37.212;2024-01-07T07:49:33;45913.03;;;-145.39;49.98
37078;BME280;22989;55.998;37.212;2024-01-07T07:52:00;45862.22;;;-145.39;50.21
37078;BME280;22989;55.998;37.212;2024-01-07T07:54:26;45823.13;;;-145.39;50.07
37078;BME280;22989;55.998;37.212;2024-01-07T07:56:51;45809.44;;;-145.39;50.09
37078;BME280;22989;55.998;37.212;2024-01-07T07:59:17;45770.34;;;-145.39;49.95
37078;BME280;22989;55.998;37.212;2024-01-07T08:01:43;45752.78;;;-145.39;49.87
37078;BME280;22989;55.998;37.212;2024-01-07T08:04:08;45743.00;;;-145.39;50.00
37078;BME280;22989;55.998;37.212;2024-01-07T08:06:35;45711.72;;;-145.39;49.58
37078;BME280;22989;55.998;37.212;2024-01-07T08:09:00;45690.25;;;-145.39;49.82
37078;BME280;22989;55.998;37.212;2024-01-07T08:11:26;45680.47;;;-145.39;49.50
37078;BME280;22989;55.998;37.212;2024-01-07T08:13:52;45727.38;;;-145.39;49.61
37078;BME280;22989;55.998;37.212;2024-01-07T08:16:18;45703.91;;;-145.39;49.63
37078;BME280;22989;55.998;37.212;2024-01-07T08:18:43;45690.25;;;-145.39;49.58
37078;BME280;22989;55.998;37.212;2024-01-07T08:21:09;45674.59;;;-145.39;49.64
37078;BME280;22989;55.998;37.212;2024-01-07T08:23:35;45676.56;;;-145.39;49.45
37078;BME280;22989;55.998;37.212;2024-01-07T08:26:02;45676.56;;;-145.39;49.50
37078;BME280;22989;55.998;37.212;2024-01-07T08:28:27;45680.47;;;-145.39;49.70
37078;BME280;22989;55.998;37.212;2024-01-07T08:30:53;45694.16;;;-145.39;49.43
37078;BME280;22989;55.998;37.212;2024-01-07T08:33:19;45670.69;;;-145.39;49.54
37078;BME280;22989;55.998;37.212;2024-01-07T08:35:44;45670.69;;;-145.39;49.52
37078;BME280;22989;55.998;37.212;2024-01-07T08:38:10;45641.38;;;-145.39;49.25
37078;BME280;22989;55.998;37.212;2024-01-07T08:40:35;45623.78;;;-145.39;49.33
37078;BME280;22989;55.998;37.212;2024-01-07T08:43:02;45680.47;;;-145.39;49.50
37078;BME280;22989;55.998;37.212;2024-01-07T08:45:27;45670.69;;;-145.39;49.33
37078;BME280;22989;55.998;37.212;2024-01-07T08:47:53;45670.69;;;-145.39;49.52
37078;BME280;22989;55.998;37.212;2024-01-07T08:50:18;45660.94;;;-145.39;49.46
37078;BME280;22989;55.998;37.212;2024-01-07T08:52:44;45723.47;;;-145.39;49.38
37078;BME280;22989;55.998;37.212;2024-01-07T08:55:11;45692.19;;;-145.39;49.50
37078;BME280;22989;55.998;37.212;2024-01-07T08:57:38;45668.75;;;-145.39;49.15
37078;BME280;22989;55.998;37.212;2024-01-07T09:00:04;45698.06;;;-145.39;49.31
37078;BME280;22989;55.998;37.212;2024-01-07T09:02:30;45676.56;;;-145.39;49.21
37078;BME280;22989;55.998;37.212;2024-01-07T09:04:56;45711.72;;;-145.39;49.19
37078;BME280;22989;55.998;37.212;2024-01-07T09:07:23;45700.00;;;-145.39;49.40
37078;BME280;22989;55.998;37.212;2024-01-07T09:09:48;45713.69;;;-145.39;49.51
37078;BME280;22989;55.998;37.212;2024-01-07T09:12:14;45705.88;;;-145.39;49.31
37078;BME280;22989;55.998;37.212;2024-01-07T09:14:40;45684.38;;;-145.39;49.30
37078;BME280;22989;55.998;37.212;2024-01-07T09:17:05;45688.28;;;-145.39;49.35
37078;BME280;22989;55.998;37.212;2024-01-07T09:19:31;45684.38;;;-145.39;49.31
37078;BME280;22989;55.998;37.212;2024-01-07T09:21:56;45729.31;;;-145.39;49.11
37078;BME280;22989;55.998;37.212;2024-01-07T09:24:22;45678.50;;;-145.39;49.14
37078;BME280;22989;55.998;37.212;2024-01-07T09:26:47;45698.06;;;-145.39;49.36
37078;BME280;22989;55.998;37.212;2024-01-07T09:29:13;45705.88;;;-145.39;49.39
37078;BME280;22989;55.998;37.212;2024-01-07T09:31:39;45725.41;;;-145.39;49.21
37078;BME280;22989;55.998;37.212;2024-01-07T09:34:05;45692.19;;;-145.39;49.24
37078;BME280;22989;55.998;37.212;2024-01-07T09:36:32;45711.72;;;-145.39;49.12
37078;BME280;22989;55.998;37.212;2024-01-07T09:38:58;45645.28;;;-145.39;49.21
37078;BME280;22989;55.998;37.212;2024-01-07T09:41:23;45678.50;;;-145.39;49.02
37078;BME280;22989;55.998;37.212;2024-01-07T09:43:51;45696.09;;;-145.39;48.97
37078;BME280;22989;55.998;37.212;2024-01-07T09:46:18;45721.50;;;-145.39;49.36
37078;BME280;22989;55.998;37.212;2024-01-07T09:48:44;45701.97;;;-145.39;49.12
37078;BME280;22989;55.998;37.212;2024-01-07T09:51:10;45678.50;;;-145.39;49.00
37078;BME280;22989;55.998;37.212;2024-01-07T09:53:38;45678.50;;;-145.39;49.01
37078;BME280;22989;55.998;37.212;2024-01-07T09:56:13;45698.06;;;-145.39;49.07
37078;BME280;22989;55.998;37.212;2024-01-07T09:58:43;45692.19;;;-145.39;49.01
37078;BME280;22989;55.998;37.212;2024-01-07T10:01:09;45701.97;;;-145.39;48.72
37078;BME280;22989;55.998;37.212;2024-01-07T10:03:35;45696.09;;;-145.39;48.76
37078;BME280;22989;55.998;37.212;2024-01-07T10:06:01;45658.97;;;-145.39;48.78
37078;BME280;22989;55.998;37.212;2024-01-07T10:08:27;45660.94;;;-145.39;48.76
37078;BME280;22989;55.998;37.212;2024-01-07T10:10:53;45680.47;;;-145.39;48.55
37078;BME280;22989;55.998;37.212;2024-01-07T10:13:20;45686.34;;;-145.39;48.42
37078;BME280;22989;55.998;37.212;2024-01-07T10:15:45;45672.66;;;-145.39;48.61
37078;BME280;22989;55.998;37.212;2024-01-07T10:18:11;45686.34;;;-145.39;48.46
37078;BME280;22989;55.998;37.212;2024-01-07T10:20:36;45674.59;;;-145.39;48.45
37078;BME280;22989;55.998;37.212;2024-01-07T10:23:03;45678.50;;;-145.39;48.54
37078;BME280;22989;55.998;37.212;2024-01-07T10:25:32;45670.69;;;-145.39;48.64
37078;BME280;22989;55.998;37.212;2024-01-07T10:28:01;45686.34;;;-145.39;48.36
37078;BME280;22989;55.998;37.212;2024-01-07T10:30:28;45651.16;;;-145.39;48.42
37078;BME280;22989;55.998;37.212;2024-01-07T10:32:58;45664.84;;;-145.39;48.52
37078;BME280;22989;55.998;37.212;2024-01-07T10:35:33;45660.94;;;-145.39;48.34
37078;BME280;22989;55.998;37.212;2024-01-07T10:38:02;45649.19;;;-145.39;48.08
37078;BME280;22989;55.998;37.212;2024-01-07T10:40:30;45647.25;;;-145.39;48.25
37078;BME280;22989;55.998;37.212;2024-01-07T10:42:56;45625.75;;;-145.39;48.33
37078;BME280;22989;55.998;37.212;2024-01-07T10:45:23;45631.63;;;-145.39;48.18
37078;BME280;22989;55.998;37.212;2024-01-07T10:47:50;45606.22;;;-145.39;48.06
37078;BME280;22989;55.998;37.212;2024-01-07T10:50:18;45635.53;;;-145.39;48.11
37078;BME280;22989;55.998;37.212;2024-01-07T10:52:49;45668.75;;;-145.39;47.98
37078;BME280;22989;55.998;37.212;2024-01-07T10:55:18;45668.75;;;-145.39;47.95
37078;BME280;22989;55.998;37.212;2024-01-07T10:57:47;45643.34;;;-145.39;48.15
37078;BME280;22989;55.998;37.212;2024-01-07T11:00:14;45658.97;;;-145.39;47.98
37078;BME280;22989;55.998;37.212;2024-01-07T11:03:11;45658.97;;;-145.39;47.93
37078;BME280;22989;55.998;37.212;2024-01-07T11:08:59;45625.75;;;-145.39;47.91
37078;BME280;22989;55.998;37.212;2024-01-07T11:11:41;45619.88;;;-145.39;47.79
37078;BME280;22989;55.998;37.212;2024-01-07T11:14:36;45643.34;;;-145.39;47.73
37078;BME280;22989;55.998;37.212;2024-01-07T11:17:03;45639.44;;;-145.39;47.67
37078;BME280;22989;55.998;37.212;2024-01-07T11:19:29;45580.81;;;-145.39;47.72
37078;BME280;22989;55.998;37.212;2024-01-07T11:22:24;45582.75;;;-145.39;47.75
37078;BME280;22989;55.998;37.212;2024-01-07T11:24:54;45580.81;;;-145.39;47.53
37078;BME280;22989;55.998;37.212;2024-01-07T11:27:25;45588.63;;;-145.39;47.52
37078;BME280;22989;55.998;37.212;2024-01-07T11:30:01;45561.25;;;-145.39;47.45
37078;BME280;22989;55.998;37.212;2024-01-07T11:32:29;45553.44;;;-145.39;47.49
37078;BME280;22989;55.998;37.212;2024-01-07T11:34:55;45586.66;;;-145.39;47.39
37078;BME280;22989;55.998;37.212;2024-01-07T11:37:22;45588.63;;;-145.39;47.35
37078;BME280;22989;55.998;37.212;2024-01-07T11:39:50;45569.09;;;-145.39;47.22
37078;BME280;22989;55.998;37.212;2024-01-07T11:42:17;45596.44;;;-145.39;47.39
37078;BME280;22989;55.998;37.212;2024-01-07T11:44:51;45573.00;;;-145.39;47.28
37078;BME280;22989;55.998;37.212;2024-01-07T11:47:17;45594.47;;;-145.39;47.20
37078;BME280;22989;55.998;37.212;2024-01-07T11:49:44;45565.19;;;-145.39;47.32
37078;BME280;22989;55.998;37.212;2024-01-07T11:52:10;45559.31;;;-145.39;47.15
37078;BME280;22989;55.998;37.212;2024-01-07T11:54:40;45565.19;;;-145.39;47.05
37078;BME280;22989;55.998;37.212;2024-01-07T11:57:06;45531.97;;;-145.39;47.11
37078;BME280;22989;55.998;37.212;2024-01-07T11:59:33;45516.31;;;-145.39;47.03
37078;BME280;22989;55.998;37.212;2024-01-07T12:02:00;45559.31;;;-145.39;47.01
37078;BME280;22989;55.998;37.212;2024-01-07T12:04:26;45539.78;;;-145.39;46.83
37078;BME280;22989;55.998;37.212;2024-01-07T12:06:51;45504.59;;;-145.39;46.95
37078;BME280;22989;55.998;37.212;2024-01-07T12:09:17;45467.47;;;-145.39;46.78
37078;BME280;22989;55.998;37.212;2024-01-07T12:11:43;45494.81;;;-145.39;46.91
37078;BME280;22989;55.998;37.212;2024-01-07T12:14:09;45461.59;;;-145.39;46.93
37078;BME280;22989;55.998;37.212;2024-01-07T12:16:36;45457.69;;;-145.39;46.85
37078;BME280;22989;55.998;37.212;2024-01-07T12:19:02;45442.06;;;-145.39;46.85
37078;BME280;22989;55.998;37.212;2024-01-07T12:21:28;45444.03;;;-145.39;46.85
37078;BME280;22989;55.998;37.212;2024-01-07T12:23:55;45424.47;;;-145.39;46.83
37078;BME280;22989;55.998;37.212;2024-01-07T12:26:29;45414.72;;;-145.39;46.87
37078;BME280;22989;55.998;37.212;2024-01-07T12:28:57;45379.53;;;-145.39;46.71